Time;durP1;ratioP1;P1;durP2;ratioP2;P2;SDS_P1;SDS_P2;PMS_P1;PMS_P2;Temp;Humidity;BMP_temperature;BMP_pressure;BME280_temperature;BME280_humidity;BME280_pressure;Samples;Min_cycle;Max_cycle;Signal;HPM_P1;HPM_P2
2024/03/29 01:44:31;;;;;;;1.10;1.00;;;12.60;99.40;;;;;;5072958;28;20273;-69
2024/03/29 01:46:58;;;;;;;1.10;1.10;;;12.60;99.30;;;;;;5100132;28;20209;-70
2024/03/29 01:49:25;;;;;;;1.10;1.00;;;12.60;99.10;;;;;;5091750;28;20216;-70
2024/03/29 01:51:53;;;;;;;1.07;1.03;;;12.60;99.00;;;;;;5090787;28;20281;-69
2024/03/29 01:54:20;;;;;;;0.80;0.80;;;12.60;99.00;;;;;;5091423;28;20192;-69
2024/03/29 01:56:48;;;;;;;1.10;1.00;;;12.50;98.90;;;;;;5089974;28;20288;-70
2024/03/29 01:59:18;;;;;;;1.43;1.23;;;12.50;98.80;;;;;;5092060;28;20286;-70
2024/03/29 02:01:47;;;;;;;1.50;1.23;;;12.60;98.60;;;;;;5066557;28;20704;-69
2024/03/29 02:04:14;;;;;;;1.33;1.00;;;12.60;98.50;;;;;;5093111;28;20193;-69
2024/03/29 02:06:41;;;;;;;0.90;0.90;;;12.60;98.50;;;;;;5094326;28;20213;-70
2024/03/29 02:09:27;;;;;;;1.20;1.10;;;12.60;98.50;;;;;;5092884;28;20197;-69
2024/03/29 02:11:54;;;;;;;2.30;1.10;;;12.50;98.40;;;;;;5081835;28;20206;-69
2024/03/29 02:14:21;;;;;;;0.70;0.70;;;12.60;98.20;;;;;;5085963;28;20190;-69
2024/03/29 02:17:08;;;;;;;0.90;0.90;;;12.50;98.00;;;;;;5091412;28;20259;-70
2024/03/29 02:19:35;;;;;;;1.43;1.07;;;12.40;98.00;;;;;;5096710;28;20184;-69
2024/03/29 02:22:06;;;;;;;0.80;0.80;;;12.40;98.00;;;;;;5092038;28;20199;-68
2024/03/29 02:24:35;;;;;;;1.00;0.90;;;12.40;98.00;;;;;;5093471;28;20737;-68
2024/03/29 02:27:20;;;;;;;0.70;0.70;;;12.50;98.00;;;;;;5088489;28;20216;-68
2024/03/29 02:29:47;;;;;;;0.60;0.60;;;12.50;97.90;;;;;;5090983;28;20182;-71
2024/03/29 02:32:15;;;;;;;0.70;0.70;;;12.50;97.90;;;;;;5096979;28;20620;-70
2024/03/29 02:34:42;;;;;;;0.80;0.80;;;12.50;97.80;;;;;;5081965;28;20204;-71
2024/03/29 02:37:09;;;;;;;0.83;0.83;;;12.50;97.70;;;;;;5089548;28;20194;-71
2024/03/29 02:39:37;;;;;;;0.70;0.70;;;12.50;97.70;;;;;;5090701;28;20216;-69
2024/03/29 02:42:05;;;;;;;0.80;0.80;;;12.40;97.60;;;;;;5100209;28;20202;-69
2024/03/29 02:44:32;;;;;;;0.63;0.63;;;12.40;97.70;;;;;;5070353;28;20197;-69
2024/03/29 02:46:59;;;;;;;0.70;0.70;;;12.40;97.60;;;;;;5098948;28;20200;-69
2024/03/29 02:49:25;;;;;;;0.73;0.73;;;12.40;97.60;;;;;;5094146;28;20671;-70
2024/03/29 02:51:52;;;;;;;0.90;0.90;;;12.40;97.90;;;;;;5094100;28;20274;-70
2024/03/29 02:54:20;;;;;;;1.20;1.10;;;12.40;97.40;;;;;;5094090;28;20203;-70
2024/03/29 02:56:47;;;;;;;1.00;1.00;;;12.40;97.30;;;;;;5080242;28;20216;-70
2024/03/29 02:59:14;;;;;;;1.23;0.80;;;12.40;97.10;;;;;;5072954;28;20196;-70
2024/03/29 03:01:40;;;;;;;1.70;1.13;;;12.50;97.10;;;;;;5077526;28;20208;-70
2024/03/29 03:04:08;;;;;;;1.10;1.00;;;12.40;96.80;;;;;;5073340;28;20581;-70
2024/03/29 03:06:34;;;;;;;3.70;1.17;;;12.40;96.70;;;;;;5094135;28;20226;-70
2024/03/29 03:11:45;;;;;;;1.20;1.10;;;12.30;96.60;;;;;;5079514;28;20206;-70
2024/03/29 03:14:33;;;;;;;1.30;1.13;;;12.30;96.60;;;;;;5085553;28;20309;-70
2024/03/29 03:16:59;;;;;;;1.20;1.10;;;12.20;96.60;;;;;;5094215;28;20193;-70
2024/03/29 03:19:26;;;;;;;2.47;1.60;;;12.20;96.60;;;;;;5095224;28;20197;-69
2024/03/29 03:21:52;;;;;;;1.87;1.60;;;12.10;96.60;;;;;;5097197;28;20190;-70
2024/03/29 03:24:19;;;;;;;3.37;2.67;;;12.00;96.60;;;;;;5084810;28;20578;-69
2024/03/29 03:26:45;;;;;;;3.20;2.90;;;12.00;96.60;;;;;;5090687;28;20193;-70
2024/03/29 03:29:14;;;;;;;3.37;2.63;;;12.00;96.60;;;;;;5103703;28;20278;-70
2024/03/29 03:31:40;;;;;;;2.30;2.10;;;11.90;96.60;;;;;;5095369;28;20672;-70
2024/03/29 03:34:07;;;;;;;2.03;1.93;;;11.80;96.60;;;;;;5093368;28;20248;-70
2024/03/29 03:36:33;;;;;;;4.23;1.93;;;11.70;96.70;;;;;;5096857;28;20659;-70
2024/03/29 03:39:00;;;;;;;2.10;1.73;;;11.70;96.80;;;;;;5096119;28;20188;-70
2024/03/29 03:41:26;;;;;;;3.07;1.93;;;11.60;96.70;;;;;;5095779;28;20551;-70
2024/03/29 03:43:53;;;;;;;2.60;1.90;;;11.60;96.70;;;;;;5082742;28;20193;-70
2024/03/29 03:46:21;;;;;;;2.37;1.90;;;11.50;96.80;;;;;;5092757;28;20282;-70
2024/03/29 03:48:48;;;;;;;3.30;1.80;;;11.40;96.80;;;;;;5112078;28;20218;-69
2024/03/29 03:51:14;;;;;;;2.57;1.60;;;11.40;96.90;;;;;;5071013;28;20197;-69
2024/03/29 03:53:41;;;;;;;2.37;2.17;;;11.40;97.00;;;;;;5081415;28;20193;-69
2024/03/29 03:56:07;;;;;;;2.80;2.30;;;11.40;97.00;;;;;;5070353;28;20612;-69
2024/03/29 03:58:34;;;;;;;3.23;1.93;;;11.30;97.00;;;;;;5073149;28;20191;-71
2024/03/29 04:01:04;;;;;;;3.77;2.10;;;11.30;97.10;;;;;;5095741;28;20196;-71
2024/03/29 04:03:32;;;;;;;3.53;2.03;;;11.20;97.00;;;;;;5095324;28;20188;-70
2024/03/29 04:06:03;;;;;;;2.67;1.97;;;11.20;97.00;;;;;;5092329;28;20193;-68
2024/03/29 04:08:30;;;;;;;1.97;1.57;;;11.20;97.10;;;;;;5072670;28;20223;-68
2024/03/29 04:10:56;;;;;;;2.97;1.60;;;11.10;97.10;;;;;;5098878;28;20207;-68
2024/03/29 04:13:43;;;;;;;3.17;1.40;;;11.00;97.10;;;;;;5094091;28;20295;-69
2024/03/29 04:16:09;;;;;;;2.20;1.20;;;11.00;97.20;;;;;;5100488;28;20272;-70
2024/03/29 04:18:38;;;;;;;2.80;1.43;;;10.90;97.30;;;;;;5100310;28;20175;-70
2024/03/29 04:21:04;;;;;;;1.50;1.40;;;10.90;97.40;;;;;;5074008;28;20206;-69
2024/03/29 04:23:32;;;;;;;1.23;1.13;;;10.90;97.40;;;;;;5102566;28;20233;-69
2024/03/29 04:25:59;;;;;;;2.00;1.80;;;10.80;97.40;;;;;;5093394;28;20230;-68
2024/03/29 04:28:45;;;;;;;3.43;1.70;;;10.80;97.40;;;;;;5092010;28;20218;-71
2024/03/29 04:31:12;;;;;;;1.70;1.57;;;10.70;97.50;;;;;;5092248;28;20619;-72
2024/03/29 04:33:40;;;;;;;1.10;1.03;;;10.60;97.50;;;;;;5095269;28;20598;-71
2024/03/29 04:36:07;;;;;;;1.97;1.60;;;10.50;97.70;;;;;;5093943;28;20531;-70
2024/03/29 04:38:34;;;;;;;1.50;1.40;;;10.50;97.90;;;;;;5088806;28;20198;-70
2024/03/29 04:41:01;;;;;;;1.20;1.10;;;10.40;98.00;;;;;;5059699;28;20211;-71
2024/03/29 04:43:30;;;;;;;1.33;1.23;;;10.40;98.10;;;;;;5091647;28;20295;-71
2024/03/29 04:46:05;;;;;;;1.50;1.10;;;10.40;98.20;;;;;;5088917;28;20669;-71
2024/03/29 04:48:32;;;;;;;1.60;1.50;;;10.30;98.20;;;;;;5090855;28;20226;-71
2024/03/29 04:51:19;;;;;;;1.70;1.60;;;10.30;98.40;;;;;;5078797;28;20206;-71
2024/03/29 04:53:46;;;;;;;1.33;1.10;;;10.20;98.40;;;;;;5092834;28;20218;-70
2024/03/29 04:56:13;;;;;;;1.93;1.43;;;10.20;98.50;;;;;;5085541;28;20189;-70
2024/03/29 04:58:41;;;;;;;1.43;1.33;;;10.10;98.50;;;;;;5096469;28;20196;-71
2024/03/29 05:01:08;;;;;;;3.30;1.43;;;10.10;98.60;;;;;;5095443;28;20227;-71
2024/03/29 05:03:35;;;;;;;2.20;1.90;;;10.10;98.60;;;;;;5095967;28;20195;-70
2024/03/29 05:06:02;;;;;;;3.00;2.10;;;10.20;98.70;;;;;;5088018;28;20192;-71
2024/03/29 05:08:31;;;;;;;2.03;1.60;;;10.20;98.60;;;;;;5091750;28;20677;-72
2024/03/29 05:10:58;;;;;;;1.60;1.50;;;10.20;98.60;;;;;;5083404;28;20679;-71
2024/03/29 05:13:25;;;;;;;1.87;1.67;;;10.20;98.60;;;;;;5091313;28;20222;-70
2024/03/29 05:15:52;;;;;;;3.00;1.50;;;10.20;98.60;;;;;;5090440;28;20200;-70
2024/03/29 05:18:19;;;;;;;2.90;1.80;;;10.20;98.60;;;;;;5090284;28;20218;-71
2024/03/29 05:20:50;;;;;;;3.03;1.70;;;10.20;98.60;;;;;;5088266;28;20324;-71
2024/03/29 05:23:17;;;;;;;2.07;1.70;;;10.10;98.60;;;;;;5079968;28;20573;-70
2024/03/29 05:25:48;;;;;;;2.97;1.50;;;10.20;98.60;;;;;;5086732;28;20202;-69
2024/03/29 05:28:34;;;;;;;5.47;2.20;;;10.20;98.70;;;;;;5093709;28;20212;-70
2024/03/29 05:31:12;;;;;;;2.60;1.50;;;10.20;98.70;;;;;;5092230;28;20515;-69
2024/03/29 05:33:40;;;;;;;2.00;1.63;;;10.20;98.60;;;;;;5085374;28;20206;-69
2024/03/29 05:36:10;;;;;;;2.23;1.40;;;10.30;98.70;;;;;;5092819;28;20219;-70
2024/03/29 05:38:37;;;;;;;3.43;1.50;;;10.30;98.60;;;;;;5090746;28;20181;-71
2024/03/29 05:41:06;;;;;;;2.13;1.50;;;10.30;98.60;;;;;;5094004;28;20673;-72
2024/03/29 05:43:33;;;;;;;2.33;1.30;;;10.40;98.60;;;;;;5097083;28;20485;-71
2024/03/29 05:46:01;;;;;;;1.40;1.30;;;10.50;98.50;;;;;;5094009;28;20633;-71
2024/03/29 05:48:47;;;;;;;1.40;1.30;;;10.60;98.40;;;;;;5094760;28;20219;-72
2024/03/29 05:51:14;;;;;;;0.90;0.90;;;10.70;98.40;;;;;;5090981;28;20198;-69
2024/03/29 05:53:42;;;;;;;1.60;1.03;;;10.80;98.30;;;;;;5092651;28;20196;-69
2024/03/29 05:56:11;;;;;;;3.37;0.93;;;10.80;98.10;;;;;;5074782;28;20196;-69
2024/03/29 05:58:38;;;;;;;1.10;1.00;;;10.90;98.10;;;;;;5097601;28;20187;-69
2024/03/29 06:01:05;;;;;;;1.00;1.00;;;11.00;98.10;;;;;;5074592;28;20209;-69
2024/03/29 06:03:32;;;;;;;1.37;1.00;;;11.00;97.90;;;;;;5103393;28;20207;-69
2024/03/29 06:05:59;;;;;;;1.83;1.30;;;11.00;97.90;;;;;;5075342;28;20269;-69
2024/03/29 06:08:27;;;;;;;2.30;1.33;;;11.00;98.00;;;;;;5092259;28;20222;-69
2024/03/29 06:10:54;;;;;;;1.23;1.13;;;11.00;97.90;;;;;;5100982;28;20375;-70
2024/03/29 06:18:48;;;;;;;1.90;1.23;;;11.30;97.90;;;;;;5094105;28;20191;-69
2024/03/29 06:21:15;;;;;;;4.20;1.50;;;11.40;97.80;;;;;;5091783;28;20205;-69
2024/03/29 06:23:42;;;;;;;1.10;1.00;;;11.40;97.50;;;;;;5074831;28;20248;-69
2024/03/29 06:26:10;;;;;;;1.57;0.90;;;11.50;97.50;;;;;;5082888;28;20196;-71
2024/03/29 06:28:38;;;;;;;2.23;1.10;;;11.60;97.50;;;;;;5097106;28;20232;-71
2024/03/29 06:31:05;;;;;;;2.23;1.20;;;11.60;97.30;;;;;;5108136;28;20963;-70
2024/03/29 06:33:32;;;;;;;1.27;0.90;;;11.70;97.10;;;;;;5099496;28;20200;-71
2024/03/29 06:38:44;;;;;;;1.57;1.03;;;11.80;96.70;;;;;;5098168;28;20190;-71
2024/03/29 06:41:12;;;;;;;1.03;1.00;;;11.90;96.60;;;;;;5097309;28;20231;-70
2024/03/29 06:43:43;;;;;;;1.83;1.33;;;12.00;96.50;;;;;;5071161;28;20251;-70
2024/03/29 06:46:10;;;;;;;2.83;1.20;;;12.00;96.20;;;;;;5098473;28;20231;-70
2024/03/29 06:48:37;;;;;;;1.37;1.27;;;12.10;96.10;;;;;;5091479;28;20695;-71
2024/03/29 06:51:05;;;;;;;3.43;1.50;;;12.10;96.00;;;;;;5093658;28;20246;-71
2024/03/29 06:53:32;;;;;;;1.10;1.00;;;12.20;96.10;;;;;;5093521;28;20196;-71
2024/03/29 06:56:01;;;;;;;3.33;1.07;;;12.20;95.90;;;;;;5101442;28;20270;-68
2024/03/29 06:58:28;;;;;;;2.97;1.20;;;12.30;95.60;;;;;;5099808;28;20651;-71
2024/03/29 07:00:58;;;;;;;2.77;1.07;;;12.40;95.60;;;;;;5101515;28;20210;-70
2024/03/29 07:03:25;;;;;;;1.90;0.97;;;12.40;95.50;;;;;;5104819;28;20187;-72
2024/03/29 07:05:53;;;;;;;1.20;1.07;;;12.50;95.40;;;;;;5090270;28;20197;-71
2024/03/29 07:08:20;;;;;;;1.13;1.03;;;12.60;95.30;;;;;;5090956;28;20227;-70
2024/03/29 07:10:47;;;;;;;3.33;1.00;;;12.60;95.20;;;;;;5102328;28;20197;-70
2024/03/29 07:13:14;;;;;;;1.03;0.93;;;12.70;95.20;;;;;;5092593;28;20709;-70
2024/03/29 07:15:41;;;;;;;1.43;1.20;;;12.80;95.00;;;;;;5073079;28;20208;-69
2024/03/29 07:18:28;;;;;;;1.30;1.00;;;12.80;94.60;;;;;;5092437;28;20660;-67
2024/03/29 07:20:55;;;;;;;4.70;1.30;;;12.90;94.40;;;;;;5092743;28;20243;-67
2024/03/29 07:23:23;;;;;;;1.63;1.30;;;13.00;94.30;;;;;;5089799;28;20361;-68
2024/03/29 07:26:00;;;;;;;2.03;0.87;;;13.10;94.40;;;;;;5095084;28;20736;-67
2024/03/29 07:28:27;;;;;;;1.10;0.93;;;13.20;94.40;;;;;;5087574;28;20215;-68
2024/03/29 07:30:54;;;;;;;1.47;0.93;;;13.30;94.30;;;;;;5098017;28;20197;-66
2024/03/29 07:33:23;;;;;;;1.27;0.90;;;13.30;94.20;;;;;;5097218;28;20239;-67
2024/03/29 07:35:52;;;;;;;0.90;0.90;;;13.40;94.20;;;;;;5097232;28;20202;-67
2024/03/29 07:38:20;;;;;;;1.57;1.03;;;13.50;94.10;;;;;;5089943;28;20201;-67
2024/03/29 07:40:47;;;;;;;2.13;1.03;;;13.60;94.10;;;;;;5087318;28;20304;-66
2024/03/29 07:43:15;;;;;;;1.60;1.13;;;13.70;94.10;;;;;;5063660;28;20213;-68
2024/03/29 07:45:44;;;;;;;2.27;1.37;;;13.70;93.80;;;;;;5094965;28;20205;-68
2024/03/29 07:48:13;;;;;;;3.80;1.20;;;13.80;93.70;;;;;;5087583;28;20205;-68
2024/03/29 07:50:40;;;;;;;1.53;1.03;;;13.90;93.60;;;;;;5096504;28;20196;-68
2024/03/29 07:53:09;;;;;;;2.97;1.30;;;14.00;93.40;;;;;;5090090;28;20204;-68
2024/03/29 07:55:38;;;;;;;5.70;1.40;;;14.10;93.30;;;;;;5091093;28;20190;-68
2024/03/29 07:58:06;;;;;;;1.00;1.00;;;14.10;92.80;;;;;;5077395;28;20198;-68
2024/03/29 08:00:33;;;;;;;1.93;1.07;;;14.20;92.80;;;;;;5096494;28;20187;-68
2024/03/29 08:03:01;;;;;;;1.77;1.13;;;14.20;92.60;;;;;;5094332;28;20194;-68
2024/03/29 08:05:28;;;;;;;1.37;1.20;;;14.30;92.80;;;;;;5090977;28;20301;-68
2024/03/29 08:07:55;;;;;;;2.67;1.23;;;14.60;92.50;;;;;;5075345;28;20596;-68
2024/03/29 08:10:24;;;;;;;2.20;1.33;;;15.10;92.00;;;;;;5080939;28;20706;-67
2024/03/29 08:12:52;;;;;;;1.63;1.00;;;15.80;91.00;;;;;;5086803;28;20305;-67
2024/03/29 08:15:20;;;;;;;0.80;0.80;;;16.50;89.60;;;;;;5091616;28;20203;-67
2024/03/29 08:17:47;;;;;;;1.43;0.93;;;17.00;88.60;;;;;;5102678;28;20278;-68
2024/03/29 08:20:14;;;;;;;0.77;0.77;;;17.40;86.60;;;;;;5088034;28;20197;-68
2024/03/29 08:22:41;;;;;;;0.90;0.80;;;17.70;85.60;;;;;;5088033;28;20573;-68
2024/03/29 08:25:10;;;;;;;1.70;1.07;;;18.10;84.50;;;;;;5076927;28;20196;-68
2024/03/29 08:27:39;;;;;;;0.70;0.70;;;18.40;83.40;;;;;;5086540;28;20205;-68
2024/03/29 08:30:07;;;;;;;1.50;1.00;;;18.80;82.70;;;;;;5086607;28;20216;-68
2024/03/29 08:32:34;;;;;;;1.37;1.27;;;19.10;81.30;;;;;;5093292;28;20209;-68
2024/03/29 08:35:01;;;;;;;2.22;1.20;;;19.30;77.90;;;;;;5095858;28;20421;-68
2024/03/29 08:37:30;;;;;;;1.93;1.30;;;19.60;75.40;;;;;;5089353;28;20388;-68
2024/03/29 08:39:57;;;;;;;1.05;0.93;;;19.80;74.60;;;;;;5094055;28;20198;-69
2024/03/29 08:42:24;;;;;;;1.45;0.90;;;20.10;74.40;;;;;;5091593;28;20202;-69
2024/03/29 08:44:53;;;;;;;3.40;1.00;;;20.20;73.90;;;;;;5089653;28;20203;-69
2024/03/29 08:47:38;;;;;;;1.23;1.00;;;20.10;71.00;;;;;;5092634;28;20199;-69
2024/03/29 08:50:06;;;;;;;1.13;0.95;;;20.20;72.20;;;;;;5087783;28;20691;-68
2024/03/29 08:52:33;;;;;;;3.80;1.20;;;20.60;71.40;;;;;;5098487;28;20196;-69
2024/03/29 08:55:00;;;;;;;1.05;0.73;;;20.90;70.10;;;;;;5094649;28;20197;-69
2024/03/29 08:57:27;;;;;;;0.93;0.68;;;21.10;69.60;;;;;;5075795;28;20211;-68
2024/03/29 08:59:56;;;;;;;1.67;0.98;;;21.40;68.90;;;;;;5090299;28;20275;-69
2024/03/29 09:02:23;;;;;;;1.15;1.05;;;21.40;67.30;;;;;;5086290;28;20577;-67
2024/03/29 09:04:50;;;;;;;1.25;1.10;;;21.50;65.90;;;;;;5092656;28;20194;-68
2024/03/29 09:07:17;;;;;;;0.90;0.90;;;21.30;64.50;;;;;;5082193;28;20208;-67
2024/03/29 09:09:45;;;;;;;1.55;1.10;;;21.30;63.80;;;;;;5098893;28;20201;-68
2024/03/29 09:12:12;;;;;;;3.13;1.20;;;21.20;63.40;;;;;;5098655;28;20188;-69
2024/03/29 09:14:39;;;;;;;0.80;0.80;;;21.10;63.10;;;;;;5099669;28;20246;-67
2024/03/29 09:17:10;;;;;;;1.55;0.93;;;21.10;63.50;;;;;;5092567;28;20197;-69
2024/03/29 09:19:37;;;;;;;2.22;1.38;;;21.10;62.80;;;;;;5090953;28;20181;-69
2024/03/29 09:22:05;;;;;;;2.92;1.33;;;21.20;62.50;;;;;;5091022;28;20387;-68
2024/03/29 09:24:34;;;;;;;1.23;1.13;;;21.40;62.50;;;;;;5087925;28;20247;-69
2024/03/29 09:27:01;;;;;;;1.10;1.00;;;21.50;62.00;;;;;;5086259;28;20769;-69
2024/03/29 09:29:28;;;;;;;0.93;0.93;;;21.60;60.70;;;;;;5074556;28;20216;-68
2024/03/29 09:31:55;;;;;;;1.27;1.13;;;21.70;60.10;;;;;;5088945;28;20208;-68
2024/03/29 09:34:43;;;;;;;1.10;1.00;;;21.70;59.10;;;;;;5092806;28;20203;-69
2024/03/29 09:37:10;;;;;;;2.55;1.20;;;21.80;58.50;;;;;;5085485;28;20227;-69
2024/03/29 09:39:37;;;;;;;3.22;0.90;;;21.80;58.50;;;;;;5090410;28;20637;-68
2024/03/29 09:42:06;;;;;;;3.60;0.85;;;21.80;57.60;;;;;;5082011;28;20197;-68
2024/03/29 09:44:35;;;;;;;2.13;1.00;;;22.10;57.40;;;;;;5084380;28;20221;-69
2024/03/29 09:47:04;;;;;;;4.10;1.35;;;22.20;57.40;;;;;;5078564;28;20231;-68
2024/03/29 09:49:32;;;;;;;2.45;0.95;;;22.40;57.10;;;;;;5097681;28;20217;-69
2024/03/29 09:52:01;;;;;;;0.90;0.90;;;22.40;57.20;;;;;;5084016;28;20196;-69
2024/03/29 09:54:30;;;;;;;1.20;1.05;;;22.60;57.60;;;;;;5091969;28;20212;-69
2024/03/29 09:56:57;;;;;;;3.10;0.90;;;22.70;57.60;;;;;;5072560;28;20505;-70
2024/03/29 09:59:43;;;;;;;1.20;1.08;;;22.80;57.10;;;;;;5099035;28;20195;-69
2024/03/29 10:02:16;;;;;;;2.63;1.30;;;22.80;56.00;;;;;;5094482;28;20196;-69
2024/03/29 10:04:45;;;;;;;1.48;0.93;;;22.60;54.70;;;;;;5093136;28;20199;-68
2024/03/29 10:07:15;;;;;;;4.40;0.80;;;22.40;54.00;;;;;;5093342;28;20196;-69
2024/03/29 10:09:43;;;;;;;1.05;1.00;;;22.20;54.00;;;;;;5100784;28;20212;-69
2024/03/29 10:12:11;;;;;;;2.35;1.13;;;22.20;54.50;;;;;;5090197;28;20208;-68
2024/03/29 10:14:49;;;;;;;3.63;1.27;;;22.10;54.20;;;;;;5100030;28;20202;-69
2024/03/29 10:20:22;;;;;;;1.20;0.90;;;21.80;54.00;;;;;;5101958;28;20272;-70
2024/03/29 10:22:50;;;;;;;2.08;1.15;;;21.80;54.70;;;;;;5097855;28;20232;-69
2024/03/29 10:25:19;;;;;;;1.25;1.00;;;21.90;54.30;;;;;;5093931;28;20211;-68
2024/03/29 10:27:46;;;;;;;0.95;0.90;;;21.90;54.20;;;;;;5098719;28;20204;-69
2024/03/29 10:30:17;;;;;;;3.42;0.90;;;21.80;54.00;;;;;;5098145;28;20215;-69
2024/03/29 10:32:44;;;;;;;2.67;1.00;;;21.70;54.00;;;;;;5102403;28;20201;-70
2024/03/29 10:35:12;;;;;;;4.30;1.20;;;21.60;53.80;;;;;;5098787;28;20192;-70
2024/03/29 10:37:40;;;;;;;1.35;1.00;;;21.50;53.80;;;;;;5097625;28;20219;-69
2024/03/29 10:40:15;;;;;;;3.05;0.93;;;21.40;53.90;;;;;;5095436;28;20188;-69
2024/03/29 10:42:42;;;;;;;1.30;1.20;;;21.40;53.90;;;;;;5089113;28;20705;-69
2024/03/29 10:45:10;;;;;;;2.33;1.10;;;21.20;53.60;;;;;;5096923;28;20560;-69
2024/03/29 10:47:37;;;;;;;1.17;0.90;;;21.10;53.40;;;;;;5102008;28;20203;-69
2024/03/29 10:50:05;;;;;;;1.50;1.10;;;20.90;53.60;;;;;;5097474;28;20220;-69
2024/03/29 10:52:34;;;;;;;0.82;0.82;;;20.70;53.90;;;;;;5094551;28;20237;-69
2024/03/29 10:55:02;;;;;;;1.15;1.08;;;20.60;54.30;;;;;;5090421;28;20193;-69
2024/03/29 10:57:32;;;;;;;2.28;0.90;;;20.40;54.40;;;;;;5093342;28;20266;-69
2024/03/29 11:00:05;;;;;;;0.82;0.82;;;20.40;55.00;;;;;;5097522;28;20189;-69
2024/03/29 11:02:44;;;;;;;1.00;1.00;;;20.30;55.20;;;;;;5103133;28;20202;-69
2024/03/29 11:05:13;;;;;;;1.25;1.00;;;20.20;55.50;;;;;;5105758;28;20193;-69
2024/03/29 11:07:42;;;;;;;4.35;1.27;;;20.10;55.70;;;;;;5091312;28;20200;-68
2024/03/29 11:10:14;;;;;;;2.63;1.02;;;20.00;56.00;;;;;;5106050;28;20213;-69
2024/03/29 11:12:55;;;;;;;2.78;0.95;;;20.00;55.90;;;;;;5094853;28;20218;-69
2024/03/29 11:15:29;;;;;;;1.23;0.90;;;19.90;55.60;;;;;;5109605;28;20192;-68
2024/03/29 11:17:57;;;;;;;2.88;1.10;;;19.80;55.30;;;;;;5098995;28;20195;-68
2024/03/29 11:20:33;;;;;;;1.90;0.95;;;19.80;55.40;;;;;;5112161;28;20203;-68
2024/03/29 11:23:05;;;;;;;0.95;0.88;;;19.80;55.00;;;;;;5096924;28;20220;-69
2024/03/29 11:25:43;;;;;;;1.13;0.90;;;19.80;54.80;;;;;;5093630;28;20196;-69
2024/03/29 11:28:15;;;;;;;1.33;0.90;;;19.70;54.80;;;;;;5094624;28;20200;-68
2024/03/29 11:30:47;;;;;;;1.48;0.82;;;19.60;55.20;;;;;;5101812;28;20205;-69
2024/03/29 11:33:33;;;;;;;1.02;0.80;;;19.50;55.10;;;;;;5106654;28;20200;-69
2024/03/29 11:36:01;;;;;;;0.73;0.73;;;19.50;55.10;;;;;;5068687;28;20528;-69
2024/03/29 11:38:33;;;;;;;1.33;0.88;;;19.50;55.30;;;;;;5092847;28;20188;-69
2024/03/29 11:41:07;;;;;;;1.70;1.10;;;19.50;55.40;;;;;;5090306;28;20200;-69
2024/03/29 11:43:37;;;;;;;1.17;1.08;;;19.50;55.10;;;;;;5088351;28;20283;-69
2024/03/29 11:46:07;;;;;;;2.25;0.80;;;19.50;55.00;;;;;;5074845;28;20196;-68
2024/03/29 11:48:35;;;;;;;2.47;0.90;;;19.50;54.10;;;;;;5102285;28;20685;-69
2024/03/29 11:51:04;;;;;;;2.05;0.90;;;19.40;53.90;;;;;;5094795;28;20205;-69
2024/03/29 11:53:31;;;;;;;1.20;0.90;;;19.50;53.80;;;;;;5077885;28;20204;-69
2024/03/29 11:55:59;;;;;;;8.55;1.42;;;19.50;53.50;;;;;;5074410;28;20209;-68
2024/03/29 11:58:28;;;;;;;4.47;0.90;;;19.50;53.30;;;;;;5100646;28;20301;-68
2024/03/29 12:00:58;;;;;;;3.15;1.00;;;19.60;53.20;;;;;;5083364;28;20196;-68
2024/03/29 12:03:27;;;;;;;1.00;1.00;;;19.70;53.30;;;;;;5077816;28;20197;-68
2024/03/29 12:05:58;;;;;;;2.83;1.00;;;19.70;53.00;;;;;;5097630;28;20210;-68
2024/03/29 12:08:26;;;;;;;1.10;1.00;;;19.80;52.60;;;;;;5097646;28;20203;-68
2024/03/29 12:10:54;;;;;;;2.45;1.02;;;19.80;52.80;;;;;;5091422;28;20259;-68
2024/03/29 12:13:21;;;;;;;3.17;1.30;;;19.90;53.00;;;;;;5090538;28;20208;-68
2024/03/29 12:15:48;;;;;;;3.88;1.20;;;20.10;53.30;;;;;;5096413;28;20204;-69
2024/03/29 12:18:17;;;;;;;2.92;1.20;;;20.10;53.10;;;;;;5091720;28;20200;-68
2024/03/29 12:20:49;;;;;;;1.42;1.20;;;20.10;53.30;;;;;;5099207;28;20347;-68
2024/03/29 12:23:17;;;;;;;1.33;1.10;;;20.10;52.90;;;;;;5095358;28;20232;-68
2024/03/29 12:25:45;;;;;;;1.85;0.82;;;20.00;52.90;;;;;;5090449;28;20196;-69
2024/03/29 12:28:15;;;;;;;1.58;1.17;;;19.90;53.20;;;;;;5097470;28;20204;-69
2024/03/29 12:31:03;;;;;;;1.00;0.90;;;19.90;53.50;;;;;;5093880;28;20205;-69
2024/03/29 12:33:32;;;;;;;1.38;1.20;;;19.90;53.30;;;;;;5085605;28;20200;-69
2024/03/29 12:35:59;;;;;;;1.35;1.10;;;19.90;53.70;;;;;;5072981;28;20220;-69
2024/03/29 12:38:26;;;;;;;1.67;1.13;;;19.90;53.80;;;;;;5081319;28;20187;-69
2024/03/29 12:40:55;;;;;;;1.30;1.20;;;20.00;53.60;;;;;;5088366;28;20196;-69
2024/03/29 12:43:41;;;;;;;2.53;0.95;;;20.00;53.70;;;;;;5069072;28;20583;-69
2024/03/29 12:46:08;;;;;;;1.48;1.00;;;20.00;53.70;;;;;;5081872;28;20215;-69
2024/03/29 12:48:37;;;;;;;2.67;1.00;;;20.00;53.30;;;;;;5092770;28;20241;-69
2024/03/29 12:51:05;;;;;;;0.90;0.90;;;20.10;53.60;;;;;;5092503;28;20196;-69
2024/03/29 12:53:51;;;;;;;1.00;0.90;;;20.10;53.70;;;;;;5094212;28;20664;-69
2024/03/29 12:56:18;;;;;;;1.38;1.00;;;20.40;53.50;;;;;;5092923;28;20212;-69
2024/03/29 12:58:45;;;;;;;0.90;0.90;;;21.00;53.20;;;;;;5092154;28;20200;-69
2024/03/29 13:01:12;;;;;;;3.03;1.10;;;21.30;52.00;;;;;;5098546;28;20192;-69
2024/03/29 13:03:43;;;;;;;1.48;1.00;;;21.30;50.80;;;;;;5095225;28;20196;-69
2024/03/29 13:06:11;;;;;;;3.15;0.93;;;21.20;50.80;;;;;;5099984;28;20241;-69
2024/03/29 13:08:38;;;;;;;1.20;1.00;;;21.50;50.90;;;;;;5091106;28;20208;-69
2024/03/29 13:11:05;;;;;;;1.20;1.10;;;21.40;51.20;;;;;;5101964;28;20215;-68
2024/03/29 13:13:32;;;;;;;3.08;1.15;;;21.10;51.60;;;;;;5095569;28;20208;-69
2024/03/29 13:16:00;;;;;;;1.15;1.05;;;20.90;51.30;;;;;;5079469;28;20287;-68
2024/03/29 13:18:27;;;;;;;3.30;0.93;;;20.60;51.00;;;;;;5084591;28;20204;-68
2024/03/29 13:20:56;;;;;;;1.75;0.98;;;20.50;51.10;;;;;;5090683;28;20224;-68
2024/03/29 13:23:23;;;;;;;1.48;0.95;;;20.40;50.70;;;;;;5087644;28;20298;-68
2024/03/29 13:25:51;;;;;;;0.98;0.88;;;20.30;50.30;;;;;;5090101;28;20196;-69
2024/03/29 13:28:18;;;;;;;1.52;1.10;;;20.20;50.70;;;;;;5089300;28;20220;-69
2024/03/29 13:30:47;;;;;;;1.55;1.20;;;20.10;50.70;;;;;;5090271;28;20216;-69
2024/03/29 13:33:15;;;;;;;1.20;1.00;;;20.00;50.30;;;;;;5071236;28;20565;-69
2024/03/29 13:35:44;;;;;;;0.80;0.80;;;19.90;50.60;;;;;;5091843;28;20551;-69
2024/03/29 13:38:12;;;;;;;2.22;1.02;;;19.80;50.90;;;;;;5089616;28;20193;-69
2024/03/29 13:40:40;;;;;;;2.83;1.00;;;19.80;51.00;;;;;;5088410;28;20184;-69
2024/03/29 13:43:07;;;;;;;0.93;0.80;;;19.70;51.00;;;;;;5093638;28;20189;-69
2024/03/29 13:45:35;;;;;;;1.00;0.93;;;19.60;51.30;;;;;;5094969;28;20204;-69
2024/03/29 13:48:02;;;;;;;1.90;1.10;;;19.60;51.40;;;;;;5095187;28;20233;-69
2024/03/29 13:50:29;;;;;;;1.42;0.95;;;19.50;51.50;;;;;;5090075;28;20270;-69
2024/03/29 13:52:56;;;;;;;1.63;1.15;;;19.40;51.50;;;;;;5102218;28;20206;-69
2024/03/29 13:55:26;;;;;;;1.08;0.80;;;19.30;51.50;;;;;;5091387;28;20207;-69
2024/03/29 13:57:54;;;;;;;2.38;1.20;;;19.30;51.80;;;;;;5105702;28;20198;-69
2024/03/29 14:00:22;;;;;;;1.85;0.90;;;19.30;52.20;;;;;;5087086;28;20602;-69
2024/03/29 14:02:49;;;;;;;0.95;0.95;;;19.20;52.40;;;;;;5098598;28;20610;-69
2024/03/29 14:05:16;;;;;;;1.52;0.80;;;19.20;52.70;;;;;;5099205;28;20207;-68
2024/03/29 14:07:43;;;;;;;1.25;1.00;;;19.10;52.80;;;;;;5100007;28;20193;-68
2024/03/29 14:10:11;;;;;;;2.33;1.10;;;19.10;52.70;;;;;;5098453;28;20196;-69
2024/03/29 14:12:39;;;;;;;0.85;0.82;;;19.00;52.50;;;;;;5094908;28;20196;-69
2024/03/29 14:15:08;;;;;;;2.20;1.40;;;19.00;52.60;;;;;;5086585;28;20224;-69
2024/03/29 14:17:35;;;;;;;11.55;1.60;;;19.00;52.80;;;;;;5098391;28;20259;-69
2024/03/29 14:20:03;;;;;;;1.63;0.90;;;19.00;52.80;;;;;;5096049;28;20598;-69
2024/03/29 14:22:31;;;;;;;2.13;0.90;;;18.90;52.80;;;;;;5094042;28;20307;-69
2024/03/29 14:24:58;;;;;;;0.80;0.80;;;18.80;52.50;;;;;;5088633;28;20196;-69
2024/03/29 14:27:26;;;;;;;0.90;0.82;;;18.70;52.70;;;;;;5089219;28;20201;-69
2024/03/29 14:29:55;;;;;;;4.47;1.05;;;18.70;52.90;;;;;;5090374;28;20196;-69
2024/03/29 14:32:22;;;;;;;0.82;0.80;;;18.70;53.00;;;;;;5090896;28;20212;-68
2024/03/29 14:34:49;;;;;;;1.27;0.90;;;18.70;52.90;;;;;;5105131;28;20616;-68
2024/03/29 14:37:16;;;;;;;1.42;0.98;;;18.70;52.70;;;;;;5077311;28;20212;-69
2024/03/29 14:40:04;;;;;;;1.40;1.00;;;18.60;52.40;;;;;;5090518;28;20302;-69
2024/03/29 14:42:49;;;;;;;3.53;1.00;;;18.60;52.60;;;;;;5090810;28;20196;-69
2024/03/29 14:45:18;;;;;;;1.00;0.90;;;18.50;52.80;;;;;;5098981;28;20202;-69
2024/03/29 14:47:46;;;;;;;1.65;1.10;;;18.50;53.10;;;;;;5077504;28;20686;-69
2024/03/29 14:50:13;;;;;;;1.83;1.13;;;18.50;53.20;;;;;;5107070;28;20211;-70
2024/03/29 14:52:40;;;;;;;4.90;1.00;;;18.40;53.30;;;;;;5091881;28;20220;-67
2024/03/29 14:55:07;;;;;;;1.17;0.98;;;18.40;53.30;;;;;;5100099;28;20197;-68